createdAt,value
2023-01-07T00:01:32.547Z,100.00
2023-01-07T00:04:00.889Z,100.00
2023-01-07T00:06:35.836Z,100.00
2023-01-07T00:09:04.410Z,100.00
2023-01-07T00:11:34.127Z,100.00
2023-01-07T00:14:01.131Z,100.00
2023-01-07T00:16:30.136Z,100.00
2023-01-07T00:18:59.003Z,100.00
2023-01-07T00:21:26.943Z,100.00
2023-01-07T00:23:58.315Z,100.00
2023-01-07T00:26:27.436Z,100.00
2023-01-07T00:28:54.365Z,100.00
2023-01-07T00:31:23.285Z,100.00
2023-01-07T00:33:59.522Z,100.00
2023-01-07T00:36:28.025Z,100.00
2023-01-07T00:38:56.890Z,100.00
2023-01-07T00:41:23.731Z,100.00
2023-01-07T00:43:50.288Z,100.00
2023-01-07T00:46:16.880Z,100.00
2023-01-07T00:48:44.841Z,100.00
2023-01-07T00:51:13.261Z,100.00
2023-01-07T00:53:39.766Z,100.00
2023-01-07T00:56:06.417Z,100.00
2023-01-07T00:58:32.911Z,100.00
2023-01-07T01:01:01.360Z,100.00
2023-01-07T01:03:29.311Z,100.00
2023-01-07T01:06:01.538Z,100.00
2023-01-07T01:08:27.930Z,100.00
2023-01-07T01:10:54.316Z,100.00
2023-01-07T01:13:20.722Z,100.00
2023-01-07T01:15:48.955Z,100.00
2023-01-07T01:18:15.739Z,100.00
2023-01-07T01:20:42.618Z,100.00
2023-01-07T01:23:09.213Z,100.00
2023-01-07T01:25:35.715Z,100.00
2023-01-07T01:28:02.458Z,100.00
2023-01-07T01:30:28.873Z,100.00
2023-01-07T01:32:55.311Z,100.00
2023-01-07T01:35:21.693Z,100.00
2023-01-07T01:37:48.124Z,100.00
2023-01-07T01:40:14.909Z,100.00
2023-01-07T01:42:41.284Z,100.00
2023-01-07T01:45:08.072Z,100.00
2023-01-07T01:47:49.491Z,100.00
2023-01-07T01:50:26.224Z,100.00
2023-01-07T01:52:52.604Z,100.00
2023-01-07T01:55:24.039Z,100.00
2023-01-07T01:57:55.193Z,100.00
2023-01-07T02:00:21.695Z,100.00
2023-01-07T02:02:52.493Z,100.00
2023-01-07T02:05:19.106Z,100.00
2023-01-07T02:07:45.461Z,100.00
2023-01-07T02:10:14.504Z,100.00
2023-01-07T02:12:46.812Z,100.00
2023-01-07T02:15:44.926Z,100.00
2023-01-07T02:18:20.072Z,100.00
2023-01-07T02:21:04.694Z,100.00
2023-01-07T02:24:08.857Z,100.00
2023-01-07T02:27:12.537Z,100.00
2023-01-07T02:30:14.577Z,100.00
2023-01-07T02:33:10.486Z,100.00
2023-01-07T02:35:47.027Z,100.00
2023-01-07T02:38:34.496Z,100.00
2023-01-07T02:41:28.942Z,100.00
2023-01-07T02:44:05.037Z,100.00
2023-01-07T02:46:40.163Z,100.00
2023-01-07T02:49:11.553Z,100.00
2023-01-07T02:51:40.652Z,100.00
2023-01-07T02:54:12.626Z,100.00
2023-01-07T02:56:57.360Z,100.00
2023-01-07T02:59:41.554Z,100.00
2023-01-07T03:02:25.992Z,100.00
2023-01-07T03:05:15.462Z,100.00
2023-01-07T03:07:50.593Z,100.00
2023-01-07T03:10:27.050Z,100.00
2023-01-07T03:13:07.355Z,100.00
2023-01-07T03:15:41.716Z,100.00
2023-01-07T03:18:14.600Z,100.00
2023-01-07T03:20:44.114Z,100.00
2023-01-07T03:23:13.865Z,100.00
2023-01-07T03:25:46.484Z,100.00
2023-01-07T03:28:17.678Z,100.00
2023-01-07T03:30:46.747Z,100.00
2023-01-07T03:33:37.126Z,100.00
2023-01-07T03:36:05.078Z,100.00
2023-01-07T03:38:33.945Z,100.00
2023-01-07T03:41:00.358Z,100.00
2023-01-07T03:43:26.826Z,100.00
2023-01-07T03:45:54.166Z,100.00
2023-01-07T03:48:20.575Z,100.00
2023-01-07T03:50:46.948Z,100.00
2023-01-07T03:53:13.415Z,100.00
2023-01-07T03:55:39.829Z,100.00
2023-01-07T03:58:07.099Z,100.00
2023-01-07T04:00:33.524Z,100.00
2023-01-07T04:03:00.316Z,100.00
2023-01-07T04:05:26.845Z,100.00
2023-01-07T04:07:53.229Z,100.00
2023-01-07T04:10:20.494Z,100.00
2023-01-07T04:12:46.963Z,100.00
2023-01-07T04:15:13.335Z,100.00
2023-01-07T04:17:39.748Z,100.00
2023-01-07T04:20:07.895Z,100.00
2023-01-07T04:22:34.488Z,100.00
2023-01-07T04:25:00.913Z,100.00
2023-01-07T04:27:27.383Z,100.00
2023-01-07T04:29:53.746Z,100.00
2023-01-07T04:32:20.097Z,100.00
2023-01-07T04:34:46.454Z,100.00
2023-01-07T04:37:12.811Z,100.00
2023-01-07T04:39:39.264Z,100.00
2023-01-07T04:42:05.742Z,100.00
2023-01-07T04:44:32.216Z,100.00
2023-01-07T04:46:58.602Z,100.00
2023-01-07T04:49:25.195Z,100.00
2023-01-07T04:51:51.664Z,100.00
2023-01-07T04:54:18.017Z,100.00
2023-01-07T04:56:44.403Z,100.00
2023-01-07T04:59:10.813Z,100.00
2023-01-07T05:01:37.378Z,100.00
2023-01-07T05:04:04.184Z,100.00
2023-01-07T05:06:30.619Z,100.00
2023-01-07T05:08:57.169Z,100.00
2023-01-07T05:11:23.607Z,100.00
2023-01-07T05:13:50.080Z,100.00
2023-01-07T05:16:17.039Z,100.00
2023-01-07T05:18:43.577Z,100.00
2023-01-07T05:21:12.809Z,100.00
2023-01-07T05:23:39.271Z,100.00
2023-01-07T05:26:05.964Z,100.00
2023-01-07T05:28:32.322Z,100.00
2023-01-07T05:30:58.816Z,100.00
2023-01-07T05:33:25.265Z,100.00
2023-01-07T05:35:51.661Z,100.00
2023-01-07T05:38:18.128Z,100.00
2023-01-07T05:40:49.800Z,100.00
2023-01-07T05:43:17.195Z,100.00
2023-01-07T05:45:46.943Z,100.00
2023-01-07T05:48:13.886Z,100.00
2023-01-07T05:50:40.318Z,100.00
2023-01-07T05:53:07.123Z,100.00
2023-01-07T05:55:33.611Z,100.00
2023-01-07T05:58:00.029Z,100.00
2023-01-07T06:00:26.445Z,100.00
2023-01-07T06:02:52.950Z,100.00
2023-01-07T06:05:19.386Z,100.00
2023-01-07T06:07:45.956Z,100.00
2023-01-07T06:10:12.362Z,100.00
2023-01-07T06:12:38.881Z,100.00
2023-01-07T06:15:07.219Z,100.00
2023-01-07T06:17:33.988Z,100.00
2023-01-07T06:20:00.585Z,100.00
2023-01-07T06:22:26.974Z,100.00
2023-01-07T06:24:53.332Z,100.00
2023-01-07T06:27:19.710Z,100.00
2023-01-07T06:29:46.111Z,100.00
2023-01-07T06:32:12.498Z,100.00
2023-01-07T06:34:38.844Z,100.00
2023-01-07T06:37:05.798Z,100.00
2023-01-07T06:39:32.213Z,100.00
2023-01-07T06:41:58.644Z,100.00
2023-01-07T06:44:25.171Z,100.00
2023-01-07T06:46:51.583Z,100.00
2023-01-07T06:49:17.944Z,100.00
2023-01-07T06:51:44.350Z,100.00
2023-01-07T06:54:10.937Z,100.00
2023-01-07T06:56:37.325Z,100.00
2023-01-07T06:59:03.756Z,100.00
2023-01-07T07:01:30.298Z,100.00
2023-01-07T07:03:57.021Z,100.00
2023-01-07T07:06:23.407Z,100.00
2023-01-07T07:08:49.817Z,100.00
2023-01-07T07:11:16.262Z,100.00
2023-01-07T07:13:42.613Z,100.00
2023-01-07T07:16:09.061Z,100.00
2023-01-07T07:18:35.526Z,100.00
2023-01-07T07:21:01.922Z,100.00
2023-01-07T07:23:28.341Z,100.00
2023-01-07T07:25:54.748Z,100.00
2023-01-07T07:28:21.190Z,100.00
2023-01-07T07:30:48.405Z,100.00
2023-01-07T07:33:15.729Z,100.00
2023-01-07T07:35:42.359Z,100.00
2023-01-07T07:38:08.966Z,100.00
2023-01-07T07:40:35.536Z,100.00
2023-01-07T07:43:10.666Z,100.00
2023-01-07T07:45:42.405Z,100.00
2023-01-07T07:48:10.346Z,100.00
2023-01-07T07:50:37.040Z,100.00
2023-01-07T07:53:04.210Z,100.00
2023-01-07T07:55:30.865Z,100.00
2023-01-07T07:57:58.363Z,100.00
2023-01-07T08:00:25.154Z,100.00
2023-01-07T08:02:51.612Z,100.00
2023-01-07T08:05:18.055Z,100.00
2023-01-07T08:07:44.500Z,100.00
2023-01-07T08:10:11.057Z,100.00
2023-01-07T08:12:38.460Z,100.00
2023-01-07T08:15:06.418Z,99.80
2023-01-07T08:17:32.984Z,100.00
2023-01-07T08:19:59.504Z,100.00
2023-01-07T08:22:25.933Z,100.00
2023-01-07T08:24:52.269Z,99.74
2023-01-07T08:27:18.728Z,98.37
2023-01-07T08:29:45.155Z,98.04
2023-01-07T08:32:11.554Z,97.96
2023-01-07T08:34:37.952Z,97.51
2023-01-07T08:37:04.367Z,97.25
2023-01-07T08:39:30.744Z,97.78
2023-01-07T08:41:57.202Z,96.79
2023-01-07T08:44:23.610Z,97.00
2023-01-07T08:46:50.064Z,96.61
2023-01-07T08:49:16.513Z,96.59
2023-01-07T08:51:42.853Z,96.02
2023-01-07T08:54:09.248Z,96.08
2023-01-07T08:56:35.644Z,97.03
2023-01-07T08:59:02.066Z,96.16
2023-01-07T09:01:28.519Z,96.07
2023-01-07T09:03:54.953Z,96.00
2023-01-07T09:06:22.095Z,96.09
2023-01-07T09:08:48.992Z,96.07
2023-01-07T09:11:15.584Z,96.72
2023-01-07T09:13:42.364Z,96.17
2023-01-07T09:16:08.863Z,95.24
2023-01-07T09:18:35.390Z,94.56
2023-01-07T09:21:01.821Z,94.03
2023-01-07T09:23:28.297Z,93.54
2023-01-07T09:25:54.687Z,93.67
2023-01-07T09:28:21.089Z,93.36
2023-01-07T09:30:47.485Z,93.14
2023-01-07T09:33:13.902Z,93.78
2023-01-07T09:35:40.250Z,93.95
2023-01-07T09:38:06.622Z,93.79
2023-01-07T09:40:38.592Z,93.18
2023-01-07T09:43:13.986Z,93.72
2023-01-07T09:46:01.358Z,94.12
2023-01-07T09:48:40.462Z,93.02
2023-01-07T09:51:16.017Z,93.50
2023-01-07T09:53:47.549Z,92.88
2023-01-07T09:56:33.855Z,94.03
2023-01-07T09:59:01.650Z,94.08
2023-01-07T10:01:31.898Z,93.17
2023-01-07T10:04:32.568Z,92.20
2023-01-07T10:07:28.267Z,92.91
2023-01-07T10:09:57.415Z,92.53
2023-01-07T10:12:35.642Z,92.38
2023-01-07T10:15:04.783Z,92.25
2023-01-07T10:17:49.936Z,92.39
2023-01-07T10:20:31.956Z,91.35
2023-01-07T10:23:04.705Z,90.81
2023-01-07T10:25:36.024Z,91.18
2023-01-07T10:28:14.021Z,91.98
2023-01-07T10:30:44.541Z,91.18
2023-01-07T10:33:26.905Z,92.33
2023-01-07T10:36:08.907Z,91.71
2023-01-07T10:38:39.780Z,91.72
2023-01-07T10:41:18.110Z,91.30
2023-01-07T10:44:03.916Z,91.50
2023-01-07T10:47:00.004Z,91.18
2023-01-07T10:49:26.282Z,91.82
2023-01-07T10:52:04.696Z,92.04
2023-01-07T10:54:54.475Z,92.24
2023-01-07T10:57:24.586Z,91.72
2023-01-07T10:59:53.729Z,93.13
2023-01-07T11:02:22.949Z,92.53
2023-01-07T11:04:49.547Z,93.02
2023-01-07T11:07:27.646Z,92.45
2023-01-07T11:09:56.911Z,91.81
2023-01-07T11:12:42.637Z,92.63
2023-01-07T11:15:18.978Z,92.07
2023-01-07T11:18:05.591Z,92.15
2023-01-07T11:20:52.212Z,91.86
2023-01-07T11:23:27.936Z,91.62
2023-01-07T11:26:04.460Z,92.78
2023-01-07T11:28:31.719Z,92.12
2023-01-07T11:31:00.048Z,96.06
2023-01-07T11:34:02.958Z,97.87
2023-01-07T11:36:43.152Z,99.17
2023-01-07T11:39:16.978Z,100.00
2023-01-07T11:41:55.654Z,99.59
2023-01-07T11:44:22.514Z,99.45
2023-01-07T11:46:49.512Z,99.57
2023-01-07T11:49:30.756Z,99.16
2023-01-07T11:51:58.500Z,98.74
2023-01-07T11:54:28.196Z,99.29
2023-01-07T11:57:14.153Z,99.17
2023-01-07T11:59:40.622Z,99.80
2023-01-07T12:02:24.680Z,99.94
2023-01-07T12:04:51.139Z,99.58
2023-01-07T12:07:17.762Z,98.76
2023-01-07T12:09:45.487Z,98.35
2023-01-07T12:12:37.101Z,98.75
2023-01-07T12:15:26.990Z,98.64
2023-01-07T12:18:02.431Z,98.98
2023-01-07T12:20:44.113Z,97.98
2023-01-07T12:23:19.905Z,98.29
2023-01-07T12:25:46.245Z,99.29
2023-01-07T12:28:51.027Z,99.11
2023-01-07T12:31:48.482Z,99.60
2023-01-07T12:34:25.053Z,100.00
2023-01-07T12:36:54.320Z,99.81
2023-01-07T12:39:28.967Z,100.00
2023-01-07T12:42:20.070Z,99.74
2023-01-07T12:44:51.423Z,99.81
2023-01-07T12:47:38.310Z,100.00
2023-01-07T12:50:14.522Z,100.00
2023-01-07T12:53:18.397Z,98.66
2023-01-07T12:55:52.187Z,99.14
2023-01-07T12:58:36.094Z,99.20
2023-01-07T13:01:11.722Z,98.58
2023-01-07T13:03:52.340Z,98.44
2023-01-07T13:06:27.972Z,98.42
2023-01-07T13:09:23.484Z,98.28
2023-01-07T13:12:41.513Z,97.52
2023-01-07T13:15:04.996Z,97.22
2023-01-07T13:17:31.866Z,97.82
2023-01-07T13:19:58.314Z,97.16
2023-01-07T13:22:36.411Z,98.33
2023-01-07T13:25:39.753Z,98.37
2023-01-07T13:28:34.838Z,97.98
2023-01-07T13:31:19.539Z,98.46
2023-01-07T13:34:04.167Z,96.85
2023-01-07T13:36:37.723Z,95.07
2023-01-07T13:39:19.055Z,94.11
2023-01-07T13:41:51.138Z,93.36
2023-01-07T13:44:50.120Z,94.20
2023-01-07T13:47:21.362Z,94.55
2023-01-07T13:49:57.641Z,92.68
2023-01-07T13:52:28.070Z,92.80
2023-01-07T13:54:56.869Z,90.68
2023-01-07T13:57:26.252Z,90.00
2023-01-07T14:00:01.009Z,90.21
2023-01-07T14:02:29.357Z,89.91
2023-01-07T14:05:05.077Z,89.93
2023-01-07T14:07:46.038Z,89.06
2023-01-07T14:10:28.927Z,88.80
2023-01-07T14:13:04.266Z,89.00
2023-01-07T14:15:58.549Z,89.29
2023-01-07T14:18:37.679Z,90.15
2023-01-07T14:21:17.689Z,90.13
2023-01-07T14:23:55.371Z,88.89
2023-01-07T14:26:47.414Z,88.62
2023-01-07T14:29:47.524Z,90.06
2023-01-07T14:32:26.323Z,89.23
2023-01-07T14:34:56.135Z,88.75
2023-01-07T14:37:35.736Z,88.11
2023-01-07T14:40:29.223Z,89.31
2023-01-07T14:43:03.531Z,89.43
2023-01-07T14:45:41.986Z,89.23
2023-01-07T14:48:08.354Z,89.06
2023-01-07T14:50:47.043Z,89.84
2023-01-07T14:53:16.466Z,89.79
2023-01-07T14:56:29.374Z,89.66
2023-01-07T14:59:34.159Z,89.14
2023-01-07T15:02:32.032Z,89.99
2023-01-07T15:05:24.792Z,90.25
2023-01-07T15:08:17.248Z,91.11
2023-01-07T15:11:04.530Z,90.62
2023-01-07T15:13:52.028Z,89.97
2023-01-07T15:16:21.543Z,90.82
2023-01-07T15:18:50.781Z,90.57
2023-01-07T15:21:38.457Z,90.52
2023-01-07T15:24:21.883Z,90.95
2023-01-07T15:27:01.347Z,91.43
2023-01-07T15:29:54.608Z,92.09
2023-01-07T15:32:27.593Z,92.07
2023-01-07T15:34:54.297Z,92.86
2023-01-07T15:37:21.266Z,93.54
2023-01-07T15:39:57.755Z,93.34
2023-01-07T15:42:26.727Z,92.74
2023-01-07T15:45:02.007Z,93.51
2023-01-07T15:47:36.876Z,93.40
2023-01-07T15:50:24.157Z,94.43
2023-01-07T15:53:03.806Z,94.96
2023-01-07T15:55:36.844Z,94.52
2023-01-07T15:58:06.382Z,94.92
2023-01-07T16:00:34.777Z,95.54
2023-01-07T16:03:02.691Z,95.52
2023-01-07T16:05:29.349Z,97.12
2023-01-07T16:08:01.061Z,97.34
2023-01-07T16:10:28.686Z,97.96
2023-01-07T16:12:57.509Z,97.76
2023-01-07T16:15:25.761Z,97.93
2023-01-07T16:17:56.919Z,98.80
2023-01-07T16:20:29.544Z,99.07
2023-01-07T16:23:23.542Z,100.00
2023-01-07T16:25:56.835Z,100.00
2023-01-07T16:28:30.743Z,100.00
2023-01-07T16:30:57.913Z,100.00
2023-01-07T16:33:28.283Z,100.00
2023-01-07T16:35:58.772Z,100.00
2023-01-07T16:38:25.998Z,100.00
2023-01-07T16:40:53.082Z,100.00
2023-01-07T16:43:42.141Z,100.00
2023-01-07T16:46:15.828Z,100.00
2023-01-07T16:48:42.319Z,100.00
2023-01-07T16:51:46.021Z,100.00
2023-01-07T16:54:34.579Z,100.00
2023-01-07T16:57:00.931Z,100.00
2023-01-07T16:59:34.193Z,100.00
2023-01-07T17:02:12.007Z,100.00
2023-01-07T17:04:38.681Z,100.00
2023-01-07T17:07:06.707Z,100.00
2023-01-07T17:09:36.677Z,100.00
2023-01-07T17:12:03.995Z,100.00
2023-01-07T17:14:33.326Z,100.00
2023-01-07T17:17:20.153Z,100.00
2023-01-07T17:19:52.533Z,100.00
2023-01-07T17:22:29.734Z,100.00
2023-01-07T17:25:08.622Z,100.00
2023-01-07T17:27:40.439Z,100.00
2023-01-07T17:30:07.606Z,100.00
2023-01-07T17:32:36.834Z,100.00
2023-01-07T17:35:04.414Z,100.00
2023-01-07T17:37:31.751Z,100.00
2023-01-07T17:39:58.209Z,100.00
2023-01-07T17:42:47.573Z,100.00
2023-01-07T17:45:16.735Z,100.00
2023-01-07T17:47:43.199Z,100.00
2023-01-07T17:50:13.127Z,100.00
2023-01-07T17:52:40.682Z,100.00
2023-01-07T17:55:07.324Z,100.00
2023-01-07T17:57:33.665Z,100.00
2023-01-07T18:00:00.224Z,100.00
2023-01-07T18:02:30.206Z,100.00
2023-01-07T18:04:56.655Z,100.00
2023-01-07T18:07:23.154Z,100.00
2023-01-07T18:09:49.600Z,100.00
2023-01-07T18:12:30.341Z,100.00
2023-01-07T18:14:58.390Z,100.00
2023-01-07T18:17:25.645Z,100.00
2023-01-07T18:19:52.212Z,100.00
2023-01-07T18:22:18.656Z,100.00
2023-01-07T18:24:45.072Z,100.00
2023-01-07T18:27:18.590Z,100.00
2023-01-07T18:29:44.993Z,100.00
2023-01-07T18:32:11.645Z,100.00
2023-01-07T18:34:38.091Z,100.00
2023-01-07T18:37:04.527Z,100.00
2023-01-07T18:39:30.904Z,100.00
2023-01-07T18:41:57.350Z,100.00
2023-01-07T18:44:24.162Z,100.00
2023-01-07T18:46:50.631Z,100.00
2023-01-07T18:49:17.088Z,100.00
2023-01-07T18:51:46.524Z,100.00
2023-01-07T18:54:12.916Z,99.91
2023-01-07T18:56:40.336Z,99.46
2023-01-07T18:59:06.728Z,98.87
2023-01-07T19:01:33.233Z,98.81
2023-01-07T19:03:59.724Z,99.41
2023-01-07T19:06:26.685Z,99.79
2023-01-07T19:08:54.196Z,100.00
2023-01-07T19:11:20.590Z,99.60
2023-01-07T19:13:46.999Z,100.00
2023-01-07T19:16:14.000Z,99.49
2023-01-07T19:18:40.617Z,99.95
2023-01-07T19:21:10.443Z,99.82
2023-01-07T19:23:37.024Z,100.00
2023-01-07T19:26:06.763Z,100.00
2023-01-07T19:28:33.238Z,100.00
2023-01-07T19:31:03.613Z,100.00
2023-01-07T19:33:29.974Z,100.00
2023-01-07T19:36:01.394Z,100.00
2023-01-07T19:38:27.848Z,100.00
2023-01-07T19:40:54.237Z,100.00
2023-01-07T19:43:20.651Z,100.00
2023-01-07T19:45:55.385Z,100.00
2023-01-07T19:48:22.963Z,100.00
2023-01-07T19:50:57.132Z,100.00
2023-01-07T19:53:24.338Z,100.00
2023-01-07T19:55:52.353Z,100.00
2023-01-07T19:58:18.729Z,100.00
2023-01-07T20:00:45.176Z,100.00
2023-01-07T20:03:11.847Z,100.00
2023-01-07T20:05:38.881Z,100.00
2023-01-07T20:08:05.607Z,100.00
2023-01-07T20:10:32.127Z,100.00
2023-01-07T20:12:58.602Z,100.00
2023-01-07T20:15:25.034Z,100.00
2023-01-07T20:17:51.396Z,100.00
2023-01-07T20:20:17.797Z,100.00
2023-01-07T20:22:45.157Z,100.00
2023-01-07T20:25:12.367Z,100.00
2023-01-07T20:27:38.822Z,100.00
2023-01-07T20:30:06.878Z,100.00
2023-01-07T20:32:33.699Z,100.00
2023-01-07T20:35:00.270Z,100.00
2023-01-07T20:37:28.099Z,100.00
2023-01-07T20:39:55.187Z,100.00
2023-01-07T20:42:21.773Z,100.00
2023-01-07T20:44:48.203Z,100.00
2023-01-07T20:47:14.799Z,100.00
2023-01-07T20:49:41.410Z,100.00
2023-01-07T20:52:07.821Z,100.00
2023-01-07T20:54:34.201Z,100.00
2023-01-07T20:57:00.655Z,100.00
2023-01-07T20:59:27.107Z,100.00
2023-01-07T21:01:53.674Z,100.00
2023-01-07T21:04:20.113Z,100.00
2023-01-07T21:06:46.510Z,100.00
2023-01-07T21:09:13.035Z,100.00
2023-01-07T21:11:40.602Z,100.00
2023-01-07T21:14:07.063Z,100.00
2023-01-07T21:16:33.463Z,100.00
2023-01-07T21:19:00.303Z,100.00
2023-01-07T21:21:26.809Z,100.00
2023-01-07T21:23:54.179Z,100.00
2023-01-07T21:26:21.402Z,100.00
2023-01-07T21:28:47.875Z,100.00
2023-01-07T21:31:16.361Z,100.00
2023-01-07T21:33:43.332Z,100.00
2023-01-07T21:36:18.721Z,100.00
2023-01-07T21:38:46.459Z,100.00
2023-01-07T21:41:15.877Z,100.00
2023-01-07T21:43:43.227Z,100.00
2023-01-07T21:46:10.055Z,100.00
2023-01-07T21:48:39.402Z,100.00
2023-01-07T21:51:08.517Z,100.00
2023-01-07T21:53:35.524Z,100.00
2023-01-07T21:56:10.407Z,100.00
2023-01-07T21:58:37.475Z,100.00
2023-01-07T22:01:05.692Z,100.00
2023-01-07T22:03:32.749Z,100.00
2023-01-07T22:06:05.301Z,100.00
2023-01-07T22:08:32.094Z,100.00
2023-01-07T22:10:58.503Z,100.00
2023-01-07T22:13:25.074Z,100.00
2023-01-07T22:15:51.746Z,100.00
2023-01-07T22:18:18.129Z,100.00
2023-01-07T22:20:44.505Z,100.00
2023-01-07T22:23:17.177Z,100.00
2023-01-07T22:25:43.558Z,100.00
2023-01-07T22:28:10.290Z,100.00
2023-01-07T22:30:40.591Z,100.00
2023-01-07T22:33:07.020Z,100.00
2023-01-07T22:35:34.024Z,100.00
2023-01-07T22:38:01.935Z,100.00
2023-01-07T22:40:32.537Z,100.00
2023-01-07T22:43:05.981Z,100.00
2023-01-07T22:45:38.288Z,100.00
2023-01-07T22:48:05.546Z,100.00
2023-01-07T22:50:32.081Z,100.00
2023-01-07T22:52:58.579Z,100.00
2023-01-07T22:55:25.056Z,100.00
2023-01-07T22:57:51.524Z,100.00
2023-01-07T23:00:38.642Z,100.00
2023-01-07T23:03:05.218Z,100.00
2023-01-07T23:05:31.966Z,100.00
2023-01-07T23:07:58.845Z,100.00
2023-01-07T23:10:25.208Z,100.00
2023-01-07T23:12:51.607Z,100.00
2023-01-07T23:15:17.987Z,100.00
2023-01-07T23:17:44.352Z,100.00
2023-01-07T23:20:11.385Z,100.00
2023-01-07T23:22:37.791Z,100.00
2023-01-07T23:25:04.657Z,100.00
2023-01-07T23:27:30.988Z,100.00
2023-01-07T23:29:58.540Z,100.00
2023-01-07T23:32:25.043Z,100.00
2023-01-07T23:34:51.499Z,100.00
2023-01-07T23:37:17.839Z,100.00
2023-01-07T23:39:44.322Z,100.00
2023-01-07T23:42:10.746Z,100.00
2023-01-07T23:44:37.156Z,100.00
2023-01-07T23:47:03.689Z,100.00
2023-01-07T23:49:31.815Z,100.00
2023-01-07T23:51:59.375Z,100.00
2023-01-07T23:54:25.769Z,100.00
2023-01-07T23:56:52.404Z,100.00
2023-01-07T23:59:18.820Z,100.00
